createdAt,value
2023-05-04T00:03:07.286Z,5.80
2023-05-04T00:05:55.488Z,6.10
2023-05-04T00:08:43.070Z,3.50
2023-05-04T00:19:02.864Z,5.30
2023-05-04T00:21:49.718Z,6.00
2023-05-04T00:24:37.035Z,4.00
2023-05-04T00:27:24.180Z,3.50
2023-05-04T00:30:11.371Z,3.80
2023-05-04T00:32:58.685Z,3.00
2023-05-04T00:35:45.466Z,4.80
2023-05-04T00:38:50.297Z,4.10
2023-05-04T00:56:16.584Z,3.60
2023-05-04T01:02:55.375Z,4.40
2023-05-04T01:06:28.935Z,5.20
2023-05-04T01:14:00.694Z,3.60
2023-05-04T01:17:02.634Z,5.00
2023-05-04T01:19:54.044Z,4.80
2023-05-04T01:22:45.984Z,5.00
2023-05-04T01:25:46.406Z,4.00
2023-05-04T01:28:53.291Z,4.80
2023-05-04T01:31:43.865Z,5.20
2023-05-04T01:34:31.039Z,4.70
2023-05-04T01:37:18.248Z,4.80
2023-05-04T01:40:06.289Z,4.90
2023-05-04T01:42:56.143Z,5.10
2023-05-04T01:45:44.618Z,4.40
2023-05-04T01:51:58.784Z,4.60
2023-05-04T01:54:45.680Z,3.90
2023-05-04T02:01:28.056Z,4.50
2023-05-04T02:04:16.400Z,4.30
2023-05-04T02:07:02.974Z,3.60
2023-05-04T02:09:49.900Z,3.90
2023-05-04T02:12:37.434Z,5.20
2023-05-04T02:15:23.998Z,4.10
2023-05-04T02:18:11.152Z,5.20
2023-05-04T02:20:58.096Z,4.40
2023-05-04T02:23:44.843Z,4.40
2023-05-04T02:26:34.086Z,4.10
2023-05-04T02:29:21.255Z,6.00
2023-05-04T02:32:08.016Z,3.90
2023-05-04T02:34:54.837Z,6.70
2023-05-04T02:37:41.612Z,5.00
2023-05-04T02:40:32.528Z,5.10
2023-05-04T02:43:19.141Z,4.00
2023-05-04T02:46:06.085Z,4.60
2023-05-04T02:48:53.079Z,6.30
2023-05-04T02:51:41.567Z,4.30
2023-05-04T02:54:29.005Z,4.20
2023-05-04T02:57:15.968Z,5.20
2023-05-04T03:00:02.845Z,5.10
2023-05-04T03:02:50.132Z,5.70
2023-05-04T03:05:36.865Z,4.00
2023-05-04T03:08:25.548Z,3.80
2023-05-04T03:11:12.844Z,4.70
2023-05-04T03:14:00.130Z,4.30
2023-05-04T03:16:48.068Z,4.70
2023-05-04T03:19:35.143Z,4.50
2023-05-04T03:22:22.857Z,6.20
2023-05-04T03:25:12.210Z,4.00
2023-05-04T03:27:59.591Z,5.90
2023-05-04T03:30:46.572Z,3.70
2023-05-04T03:33:34.040Z,4.50
2023-05-04T03:36:22.834Z,5.70
2023-05-04T03:39:10.033Z,4.20
2023-05-04T03:41:58.809Z,4.20
2023-05-04T03:44:47.911Z,4.90
2023-05-04T03:47:35.131Z,5.00
2023-05-04T03:50:22.649Z,5.00
2023-05-04T03:53:09.448Z,11.80
2023-05-04T03:55:56.281Z,6.40
2023-05-04T03:58:43.332Z,3.70
2023-05-04T04:01:30.293Z,5.10
2023-05-04T04:04:17.560Z,5.10
2023-05-04T04:07:04.786Z,4.10
2023-05-04T04:09:53.382Z,4.50
2023-05-04T04:12:40.610Z,5.80
2023-05-04T04:15:27.587Z,3.60
2023-05-04T04:18:14.763Z,7.30
2023-05-04T04:21:01.739Z,4.50
2023-05-04T04:23:48.683Z,3.50
2023-05-04T04:26:35.338Z,3.80
2023-05-04T04:29:23.391Z,5.60
2023-05-04T04:32:10.672Z,5.20
2023-05-04T04:34:57.253Z,6.20
2023-05-04T04:37:44.913Z,27.80
2023-05-04T04:40:33.904Z,6.20
2023-05-04T04:43:20.807Z,10.40
2023-05-04T04:46:09.668Z,4.60
2023-05-04T04:48:57.190Z,5.40
2023-05-04T04:51:44.888Z,4.20
2023-05-04T04:54:31.852Z,4.10
2023-05-04T04:57:18.670Z,5.00
2023-05-04T05:00:15.693Z,6.80
2023-05-04T05:03:04.951Z,5.40
2023-05-04T05:05:53.134Z,8.80
2023-05-04T05:08:41.828Z,4.70
2023-05-04T05:11:29.030Z,7.00
2023-05-04T05:14:15.978Z,9.00
2023-05-04T05:17:05.487Z,6.00
2023-05-04T05:19:53.812Z,4.90
2023-05-04T05:22:41.306Z,3.90
2023-05-04T05:25:28.406Z,6.50
2023-05-04T05:28:20.086Z,4.60
2023-05-04T05:31:07.208Z,4.30
2023-05-04T05:33:54.392Z,4.20
2023-05-04T05:36:42.533Z,5.30
2023-05-04T05:39:29.957Z,4.30
2023-05-04T05:42:17.238Z,4.00
2023-05-04T05:45:04.761Z,4.90
2023-05-04T05:47:52.137Z,3.50
2023-05-04T05:50:39.405Z,5.60
2023-05-04T05:53:26.430Z,5.50
2023-05-04T05:56:15.132Z,4.40
2023-05-04T05:59:01.639Z,4.20
2023-05-04T06:01:48.644Z,4.60
2023-05-04T06:04:35.466Z,4.40
2023-05-04T06:07:22.342Z,5.30
2023-05-04T06:10:10.630Z,6.30
2023-05-04T06:12:57.605Z,5.70
2023-05-04T06:15:53.865Z,5.00
2023-05-04T06:18:41.902Z,3.60
2023-05-04T06:21:29.232Z,4.40
2023-05-04T06:24:18.648Z,7.30
2023-05-04T06:27:05.428Z,5.40
2023-05-04T06:29:54.083Z,5.20
2023-05-04T06:32:41.096Z,5.20
2023-05-04T06:35:31.980Z,3.60
2023-05-04T06:38:20.986Z,5.70
2023-05-04T06:41:07.955Z,5.80
2023-05-04T06:43:56.165Z,13.10
2023-05-04T06:46:51.623Z,3.80
2023-05-04T06:49:39.055Z,7.60
2023-05-04T06:52:32.056Z,12.40
2023-05-04T06:55:19.420Z,6.70
2023-05-04T06:58:07.203Z,8.30
2023-05-04T07:00:54.983Z,5.90
2023-05-04T07:03:43.288Z,6.80
2023-05-04T07:06:30.890Z,5.20
2023-05-04T07:09:20.979Z,8.10
2023-05-04T07:12:07.972Z,4.20
2023-05-04T07:14:54.859Z,6.00
2023-05-04T07:17:42.629Z,4.50
2023-05-04T07:20:29.693Z,6.90
2023-05-04T07:23:16.830Z,4.60
2023-05-04T07:26:07.523Z,7.10
2023-05-04T07:28:56.445Z,5.40
2023-05-04T07:31:43.447Z,3.70
2023-05-04T07:34:44.578Z,18.60
2023-05-04T07:37:35.310Z,4.40
2023-05-04T07:40:22.369Z,7.90
2023-05-04T07:43:10.466Z,26.60
2023-05-04T07:45:59.573Z,5.10
2023-05-04T07:48:46.978Z,5.30
2023-05-04T07:51:35.970Z,32.40
2023-05-04T07:54:23.150Z,5.10
2023-05-04T07:57:10.358Z,3.80
2023-05-04T07:59:57.095Z,4.80
2023-05-04T08:02:44.450Z,4.60
2023-05-04T08:05:34.032Z,4.80
2023-05-04T08:08:21.854Z,7.20
2023-05-04T08:11:19.951Z,7.90
2023-05-04T08:14:12.401Z,5.50
2023-05-04T08:17:00.863Z,4.70
2023-05-04T08:19:55.953Z,4.10
2023-05-04T08:22:58.070Z,7.50
2023-05-04T08:25:45.174Z,4.90
2023-05-04T08:28:37.037Z,4.90
2023-05-04T08:34:12.690Z,5.40
2023-05-04T08:37:11.544Z,4.50
2023-05-04T08:39:59.015Z,7.40
2023-05-04T08:42:48.261Z,7.40
2023-05-04T08:45:39.626Z,15.20
2023-05-04T08:48:27.592Z,6.30
2023-05-04T08:51:15.021Z,4.90
2023-05-04T08:54:10.185Z,6.80
2023-05-04T08:57:01.378Z,5.00
2023-05-04T08:59:52.751Z,3.80
2023-05-04T09:03:01.413Z,4.30
2023-05-04T09:05:51.164Z,6.30
2023-05-04T09:08:38.251Z,4.80
2023-05-04T09:11:35.804Z,15.10
2023-05-04T09:18:39.925Z,5.00
2023-05-04T09:22:57.091Z,5.30
2023-05-04T09:26:57.882Z,4.90
2023-05-04T09:30:12.770Z,5.10
2023-05-04T09:33:00.019Z,4.30
2023-05-04T09:35:47.190Z,7.20
2023-05-04T09:38:35.087Z,6.60
2023-05-04T09:41:33.625Z,3.80
2023-05-04T09:44:23.125Z,5.80
2023-05-04T09:47:10.844Z,5.00
2023-05-04T09:49:58.080Z,4.30
2023-05-04T09:52:48.139Z,4.60
2023-05-04T09:55:35.412Z,5.70
2023-05-04T09:58:26.097Z,9.00
2023-05-04T10:01:13.062Z,5.40
2023-05-04T10:04:03.065Z,5.40
2023-05-04T10:06:55.274Z,7.40
2023-05-04T10:09:52.321Z,5.50
2023-05-04T10:12:42.156Z,4.10
2023-05-04T10:15:34.381Z,6.80
2023-05-04T10:18:46.808Z,4.30
2023-05-04T10:22:05.542Z,6.30
2023-05-04T10:25:12.402Z,9.90
2023-05-04T10:28:35.274Z,5.60
2023-05-04T10:31:27.220Z,6.50
2023-05-04T10:34:28.102Z,6.50
2023-05-04T10:37:22.249Z,8.70
2023-05-04T10:40:31.661Z,4.40
2023-05-04T10:43:37.478Z,4.70
2023-05-04T10:46:25.409Z,9.60
2023-05-04T10:49:17.860Z,5.90
2023-05-04T10:52:18.538Z,6.10
2023-05-04T10:55:07.044Z,6.20
2023-05-04T10:57:56.899Z,5.80
2023-05-04T11:00:46.785Z,5.50
2023-05-04T11:03:43.725Z,6.20
2023-05-04T11:06:30.986Z,5.10
2023-05-04T11:09:17.851Z,5.40
2023-05-04T11:12:05.436Z,4.60
2023-05-04T11:14:52.160Z,5.80
2023-05-04T11:17:52.561Z,9.30
2023-05-04T11:20:40.048Z,6.30
2023-05-04T11:23:28.393Z,4.60
2023-05-04T11:26:16.318Z,7.00
2023-05-04T11:29:12.850Z,6.00
2023-05-04T11:32:00.176Z,5.40
2023-05-04T11:34:48.342Z,7.60
2023-05-04T11:37:42.978Z,9.70
2023-05-04T11:40:29.640Z,5.80
2023-05-04T11:43:17.627Z,11.00
2023-05-04T11:46:06.337Z,6.20
2023-05-04T11:48:53.470Z,5.80
2023-05-04T11:51:42.285Z,5.90
2023-05-04T11:54:29.382Z,6.40
2023-05-04T11:57:23.360Z,5.10
2023-05-04T12:00:13.466Z,7.90
2023-05-04T12:03:02.205Z,5.30
2023-05-04T12:05:56.898Z,5.80
2023-05-04T12:08:43.918Z,5.10
2023-05-04T12:11:31.066Z,5.30
2023-05-04T12:14:19.046Z,7.50
2023-05-04T12:17:20.590Z,8.00
2023-05-04T12:20:08.868Z,5.60
2023-05-04T12:23:05.724Z,6.40
2023-05-04T12:25:58.085Z,6.20
2023-05-04T12:28:47.976Z,4.80
2023-05-04T12:31:35.008Z,18.00
2023-05-04T12:34:22.019Z,8.10
2023-05-04T12:37:25.527Z,5.20
2023-05-04T12:40:25.097Z,6.00
2023-05-04T12:43:20.893Z,6.40
2023-05-04T12:46:25.599Z,7.00
2023-05-04T12:49:14.537Z,8.10
2023-05-04T12:52:01.615Z,5.20
2023-05-04T12:54:48.616Z,43.20
2023-05-04T12:57:36.499Z,14.10
2023-05-04T13:00:23.635Z,5.80
2023-05-04T13:03:12.774Z,9.60
2023-05-04T13:06:04.891Z,6.70
2023-05-04T13:08:52.240Z,8.10
2023-05-04T13:12:07.058Z,13.40
2023-05-04T13:14:58.102Z,6.60
2023-05-04T13:17:45.363Z,14.00
2023-05-04T13:20:33.571Z,11.10
2023-05-04T13:23:23.710Z,24.30
2023-05-04T13:26:11.054Z,9.60
2023-05-04T13:28:58.106Z,33.50
2023-05-04T13:31:45.393Z,10.60
2023-05-04T13:34:34.843Z,8.50
2023-05-04T13:37:21.803Z,13.40
2023-05-04T13:40:09.598Z,17.90
2023-05-04T13:42:56.520Z,17.20
2023-05-04T13:45:43.145Z,10.20
2023-05-04T13:48:32.891Z,8.10
2023-05-04T13:51:21.682Z,13.90
2023-05-04T13:54:08.828Z,7.00
2023-05-04T13:56:55.948Z,10.70
2023-05-04T13:59:48.818Z,8.30
2023-05-04T14:02:46.873Z,6.80
2023-05-04T14:05:35.621Z,5.70
2023-05-04T14:08:22.523Z,9.50
2023-05-04T14:11:12.225Z,8.50
2023-05-04T14:13:59.244Z,4.10
2023-05-04T14:16:46.956Z,6.10
2023-05-04T14:19:33.936Z,9.90
2023-05-04T14:22:20.844Z,7.10
2023-05-04T14:25:08.145Z,6.00
2023-05-04T14:27:55.822Z,5.80
2023-05-04T14:30:42.646Z,13.40
2023-05-04T14:33:30.211Z,9.20
2023-05-04T14:36:17.946Z,6.70
2023-05-04T14:39:05.398Z,39.70
2023-05-04T14:41:53.253Z,161.50
2023-05-04T14:44:40.485Z,135.40
2023-05-04T14:47:28.730Z,32.40
2023-05-04T14:50:15.942Z,18.60
2023-05-04T14:53:02.788Z,5.30
2023-05-04T14:55:50.863Z,6.40
2023-05-04T14:58:37.954Z,12.60
2023-05-04T15:01:27.373Z,7.60
2023-05-04T15:04:14.592Z,10.60
2023-05-04T15:07:02.098Z,6.20
2023-05-04T15:09:48.925Z,6.70
2023-05-04T15:12:40.034Z,7.30
2023-05-04T15:15:28.327Z,10.00
2023-05-04T15:18:15.319Z,7.10
2023-05-04T15:21:02.599Z,4.40
2023-05-04T15:23:49.373Z,4.90
2023-05-04T15:26:36.108Z,6.30
2023-05-04T15:29:22.933Z,6.30
2023-05-04T15:32:09.786Z,8.30
2023-05-04T15:35:05.269Z,4.90
2023-05-04T15:37:53.641Z,5.30
2023-05-04T15:40:40.259Z,5.00
2023-05-04T15:43:27.065Z,5.40
2023-05-04T15:46:15.361Z,4.20
2023-05-04T15:49:02.345Z,5.90
2023-05-04T15:51:49.004Z,4.00
2023-05-04T15:54:36.359Z,5.80
2023-05-04T15:57:23.510Z,6.70
2023-05-04T16:00:10.861Z,4.50
2023-05-04T16:02:58.312Z,5.80
2023-05-04T16:05:46.229Z,5.50
2023-05-04T16:08:33.319Z,6.60
2023-05-04T16:11:20.253Z,5.90
2023-05-04T16:14:08.668Z,7.80
2023-05-04T16:16:55.659Z,8.40
2023-05-04T16:19:44.378Z,9.40
2023-05-04T16:22:32.148Z,7.10
2023-05-04T16:25:19.170Z,6.90
2023-05-04T16:28:06.493Z,8.20
2023-05-04T16:30:53.637Z,6.00
2023-05-04T16:33:47.072Z,7.30
2023-05-04T16:36:34.735Z,5.30
2023-05-04T16:39:21.669Z,5.90
2023-05-04T16:42:08.661Z,5.50
2023-05-04T16:44:55.740Z,7.90
2023-05-04T16:47:43.861Z,5.50
2023-05-04T16:50:30.918Z,5.30
2023-05-04T16:53:18.005Z,3.70
2023-05-04T16:56:05.405Z,5.50
2023-05-04T16:58:51.952Z,5.40
2023-05-04T17:01:38.732Z,4.70
2023-05-04T17:04:27.681Z,5.00
2023-05-04T17:07:14.352Z,4.70
2023-05-04T17:10:01.568Z,5.50
2023-05-04T17:12:48.494Z,7.90
2023-05-04T17:15:39.907Z,5.20
2023-05-04T17:18:28.110Z,8.30
2023-05-04T17:21:15.069Z,7.90
2023-05-04T17:24:01.964Z,8.20
2023-05-04T17:26:48.824Z,4.40
2023-05-04T17:29:35.496Z,5.70
2023-05-04T17:32:22.450Z,4.60
2023-05-04T17:35:23.460Z,5.80
2023-05-04T17:38:12.918Z,6.70
2023-05-04T17:41:00.132Z,6.30
2023-05-04T17:43:47.396Z,6.20
2023-05-04T17:46:34.791Z,4.90
2023-05-04T17:49:21.514Z,6.40
2023-05-04T17:52:09.088Z,6.20
2023-05-04T17:54:56.205Z,6.30
2023-05-04T17:57:44.182Z,8.70
2023-05-04T18:00:31.254Z,6.60
2023-05-04T18:03:18.083Z,6.50
2023-05-04T18:06:06.072Z,7.40
2023-05-04T18:08:52.569Z,7.00
2023-05-04T18:11:39.446Z,7.60
2023-05-04T18:14:26.628Z,8.20
2023-05-04T18:17:13.666Z,8.70
2023-05-04T18:20:01.237Z,8.00
2023-05-04T18:22:48.262Z,4.60
2023-05-04T18:25:37.556Z,12.70
2023-05-04T18:28:24.904Z,15.80
2023-05-04T18:31:12.117Z,8.80
2023-05-04T18:34:02.907Z,9.50
2023-05-04T18:36:50.199Z,5.40
2023-05-04T18:39:38.098Z,5.50
2023-05-04T18:42:25.417Z,4.60
2023-05-04T18:45:12.424Z,6.10
2023-05-04T18:47:59.691Z,6.40
2023-05-04T18:50:57.158Z,18.10
2023-05-04T18:53:44.224Z,12.10
2023-05-04T18:56:30.973Z,7.40
2023-05-04T19:02:04.353Z,9.10
2023-05-04T19:04:51.284Z,12.80
2023-05-04T19:07:38.038Z,8.80
2023-05-04T19:10:24.902Z,14.10
2023-05-04T19:13:11.835Z,15.70
2023-05-04T19:15:58.817Z,14.70
2023-05-04T19:18:45.873Z,14.30
2023-05-04T19:21:33.424Z,11.10
2023-05-04T19:24:20.139Z,18.40
2023-05-04T19:27:08.514Z,8.10
2023-05-04T19:29:56.201Z,13.60
2023-05-04T19:32:43.578Z,12.90
2023-05-04T19:35:32.694Z,11.60
2023-05-04T19:38:19.804Z,15.30
2023-05-04T19:41:06.518Z,13.80
2023-05-04T19:43:53.512Z,9.70
2023-05-04T19:46:41.156Z,15.70
2023-05-04T19:49:28.282Z,22.00
2023-05-04T19:52:15.665Z,17.40
2023-05-04T19:55:03.253Z,15.30
2023-05-04T19:57:50.230Z,10.60
2023-05-04T20:00:38.304Z,10.00
2023-05-04T20:03:25.715Z,9.00
2023-05-04T20:06:13.427Z,6.30
2023-05-04T20:09:00.988Z,6.60
2023-05-04T20:11:47.985Z,11.70
2023-05-04T20:14:34.877Z,10.10
2023-05-04T20:17:21.940Z,11.50
2023-05-04T20:20:09.896Z,8.80
2023-05-04T20:22:56.875Z,9.10
2023-05-04T20:28:30.434Z,9.50
2023-05-04T20:31:17.434Z,13.20
2023-05-04T20:34:04.676Z,14.50
2023-05-04T20:36:51.318Z,12.50
2023-05-04T20:39:40.733Z,9.70
2023-05-04T20:42:27.685Z,14.30
2023-05-04T20:45:14.482Z,9.90
2023-05-04T20:48:03.867Z,7.70
2023-05-04T20:50:53.165Z,7.50
2023-05-04T20:53:45.267Z,5.30
2023-05-04T20:56:34.188Z,4.10
2023-05-04T20:59:20.982Z,4.20
2023-05-04T21:02:08.036Z,4.00
2023-05-04T21:04:54.785Z,5.00
2023-05-04T21:07:41.599Z,4.80
2023-05-04T21:10:30.869Z,5.10
2023-05-04T21:13:17.798Z,6.50
2023-05-04T21:16:05.016Z,5.70
2023-05-04T21:18:52.001Z,5.50
2023-05-04T21:21:41.032Z,7.60
2023-05-04T21:24:28.097Z,5.50
2023-05-04T21:27:15.039Z,4.70
2023-05-04T21:30:09.935Z,4.40
2023-05-04T21:32:56.628Z,5.50
2023-05-04T21:35:43.561Z,4.50
2023-05-04T21:38:30.607Z,5.60
2023-05-04T21:41:17.268Z,3.10
2023-05-04T21:44:04.925Z,5.20
2023-05-04T21:46:52.902Z,5.10
2023-05-04T21:49:39.930Z,4.50
2023-05-04T21:52:26.873Z,3.50
2023-05-04T21:55:14.020Z,3.80
2023-05-04T21:58:01.177Z,6.90
2023-05-04T22:00:49.051Z,3.90
2023-05-04T22:03:36.119Z,3.70
2023-05-04T22:06:24.714Z,5.10
2023-05-04T22:09:13.476Z,7.90
2023-05-04T22:12:00.320Z,6.20
2023-05-04T22:14:47.197Z,5.00
2023-05-04T22:17:34.158Z,4.20
2023-05-04T22:20:23.437Z,3.80
2023-05-04T22:23:10.090Z,3.80
2023-05-04T22:25:57.095Z,3.90
2023-05-04T22:28:44.017Z,4.90
2023-05-04T22:31:31.023Z,3.70
2023-05-04T22:34:17.947Z,5.90
2023-05-04T22:37:05.109Z,4.30
2023-05-04T22:39:51.884Z,3.90
2023-05-04T22:42:38.572Z,3.60
2023-05-04T22:45:25.554Z,4.20
2023-05-04T22:48:14.179Z,5.60
2023-05-04T22:51:01.310Z,3.90
2023-05-04T22:53:48.000Z,3.90
2023-05-04T22:56:35.590Z,5.60
2023-05-04T22:59:23.328Z,4.10
2023-05-04T23:02:10.333Z,4.30
2023-05-04T23:04:57.409Z,4.30
2023-05-04T23:07:44.064Z,6.60
2023-05-04T23:13:17.233Z,5.00
2023-05-04T23:16:04.348Z,5.10
2023-05-04T23:18:51.716Z,5.20
2023-05-04T23:21:39.818Z,5.10
2023-05-04T23:24:27.994Z,4.60
2023-05-04T23:27:14.726Z,4.80
2023-05-04T23:30:02.131Z,4.30
2023-05-04T23:32:49.112Z,4.60
2023-05-04T23:35:37.561Z,4.90
2023-05-04T23:38:24.503Z,5.80
2023-05-04T23:41:12.618Z,4.60
2023-05-04T23:44:00.725Z,6.40
2023-05-04T23:46:47.700Z,5.10
2023-05-04T23:49:34.552Z,4.20
2023-05-04T23:52:21.278Z,5.50
2023-05-04T23:57:54.450Z,4.40
